Time;durP1;ratioP1;P1;durP2;ratioP2;P2;SDS_P1;SDS_P2;PMS_P1;PMS_P2;Temp;Humidity;BMP_temperature;BMP_pressure;BME280_temperature;BME280_humidity;BME280_pressure;Samples;Min_cycle;Max_cycle;Signal;HPM_P1;HPM_P2
2023/03/19 00:01:06;;;;;;;17.83;13.55;;;;;;;8.98;100.00;101140.00;5115013;28;20036;-72
2023/03/19 00:03:33;;;;;;;20.73;15.25;;;;;;;8.98;100.00;101151.44;5114273;28;20027;-72
2023/03/19 00:05:58;;;;;;;19.98;14.88;;;;;;;8.97;100.00;101146.25;5114960;28;20047;-72
2023/03/19 00:08:24;;;;;;;19.52;14.05;;;;;;;8.94;100.00;101147.38;5114833;28;20032;-72
2023/03/19 00:10:49;;;;;;;19.55;14.05;;;;;;;8.88;100.00;101154.94;5114436;28;20028;-72
2023/03/19 00:13:15;;;;;;;21.73;14.55;;;;;;;8.78;100.00;101155.69;5114835;28;20040;-72
2023/03/19 00:15:41;;;;;;;22.30;15.38;;;;;;;8.77;100.00;101158.44;5114312;28;20046;-73
2023/03/19 00:18:07;;;;;;;24.15;15.93;;;;;;;8.74;100.00;101153.38;5114729;28;20482;-72
2023/03/19 00:20:33;;;;;;;25.48;17.20;;;;;;;8.74;100.00;101154.22;5114232;28;20030;-73
2023/03/19 00:22:58;;;;;;;26.60;17.67;;;;;;;8.72;100.00;101153.50;5114327;28;20102;-73
2023/03/19 00:25:23;;;;;;;29.73;19.02;;;;;;;8.72;100.00;101153.50;5113674;28;20447;-73
2023/03/19 00:27:49;;;;;;;31.60;18.58;;;;;;;8.73;100.00;101159.63;5114029;28;20082;-71
2023/03/19 00:30:15;;;;;;;27.05;17.48;;;;;;;8.68;100.00;101159.16;5114265;28;20048;-71
2023/03/19 00:32:40;;;;;;;25.23;18.00;;;;;;;8.59;100.00;101160.72;5113989;28;20487;-71
2023/03/19 00:35:07;;;;;;;26.02;17.00;;;;;;;8.51;100.00;101165.75;5114345;28;20388;-71
2023/03/19 00:37:34;;;;;;;25.92;16.63;;;;;;;8.39;100.00;101163.06;5113715;28;20035;-72
2023/03/19 00:40:00;;;;;;;25.55;15.95;;;;;;;8.31;100.00;101165.44;5113903;28;20035;-72
2023/03/19 00:42:25;;;;;;;25.15;17.02;;;;;;;8.18;100.00;101164.66;5114106;28;20066;-71
2023/03/19 00:44:51;;;;;;;27.25;16.77;;;;;;;8.07;100.00;101168.13;5112351;28;20429;-72
2023/03/19 00:47:17;;;;;;;28.00;17.35;;;;;;;7.94;100.00;101171.72;5114064;28;20043;-72
2023/03/19 00:49:42;;;;;;;27.35;16.95;;;;;;;7.84;100.00;101170.69;5113842;27;20136;-72
2023/03/19 00:52:07;;;;;;;23.08;14.43;;;;;;;7.76;100.00;101168.63;5114036;28;20031;-71
2023/03/19 00:54:33;;;;;;;23.00;14.43;;;;;;;7.74;100.00;101164.38;5113528;28;20031;-72
2023/03/19 00:56:59;;;;;;;19.33;12.85;;;;;;;7.72;100.00;101167.16;5113962;28;20115;-71
2023/03/19 00:59:25;;;;;;;21.98;12.18;;;;;;;7.70;100.00;101171.72;5114290;28;20028;-71
2023/03/19 01:01:51;;;;;;;23.27;12.27;;;;;;;7.66;100.00;101172.91;5113051;28;20094;-71
2023/03/19 01:04:17;;;;;;;20.38;11.77;;;;;;;7.58;100.00;101170.81;5112378;28;20417;-71
2023/03/19 01:06:43;;;;;;;19.65;11.57;;;;;;;7.50;100.00;101173.16;5113216;28;20035;-71
2023/03/19 01:09:09;;;;;;;21.52;11.82;;;;;;;7.46;100.00;101174.31;5113435;28;20031;-71
2023/03/19 01:11:35;;;;;;;20.88;11.50;;;;;;;7.46;100.00;101174.31;5113296;28;20038;-72
2023/03/19 01:14:01;;;;;;;22.83;11.63;;;;;;;7.46;100.00;101166.38;5113529;28;20122;-71
2023/03/19 01:16:26;;;;;;;23.08;11.63;;;;;;;7.47;100.00;101172.53;5113484;28;20023;-71
2023/03/19 01:18:52;;;;;;;23.23;11.45;;;;;;;7.41;100.00;101179.13;5113179;28;20034;-71
2023/03/19 01:21:18;;;;;;;21.50;11.88;;;;;;;7.34;100.00;101181.34;5112161;28;20028;-71
2023/03/19 01:23:43;;;;;;;22.65;13.05;;;;;;;7.26;100.00;101181.06;5112744;28;20056;-71
2023/03/19 01:26:09;;;;;;;20.55;12.00;;;;;;;7.21;100.00;101183.16;5113366;28;20028;-71
2023/03/19 01:28:35;;;;;;;23.02;13.10;;;;;;;7.14;100.00;101182.78;5112057;28;20035;-71
2023/03/19 01:31:04;;;;;;;28.40;13.52;;;;;;;7.10;100.00;101183.94;5112479;27;20055;-71
2023/03/19 01:33:30;;;;;;;25.75;13.93;;;;;;;7.07;100.00;101186.78;5111663;28;20480;-71
2023/03/19 01:35:56;;;;;;;21.75;13.63;;;;;;;6.99;100.00;101181.22;5112799;28;20035;-71
2023/03/19 01:38:22;;;;;;;23.17;13.00;;;;;;;6.93;100.00;101176.34;5111834;28;20123;-71
2023/03/19 01:40:48;;;;;;;23.17;12.60;;;;;;;6.87;100.00;101183.75;5112536;28;20122;-71
2023/03/19 01:43:24;;;;;;;23.38;13.30;;;;;;;6.78;100.00;101184.38;5113125;28;20181;-71
2023/03/19 01:46:01;;;;;;;26.38;12.68;;;;;;;6.69;100.00;101177.94;5112609;28;20055;-71
2023/03/19 01:48:43;;;;;;;28.40;13.77;;;;;;;6.62;100.00;101183.75;5112990;28;20067;-71
2023/03/19 01:51:11;;;;;;;22.48;11.70;;;;;;;6.54;100.00;101184.28;5113555;28;20459;-71
2023/03/19 01:53:40;;;;;;;25.40;12.55;;;;;;;6.50;100.00;101180.16;5112981;28;20035;-71
2023/03/19 01:56:19;;;;;;;23.55;12.25;;;;;;;6.42;100.00;101182.44;5112908;28;20097;-71
2023/03/19 01:58:48;;;;;;;30.27;14.25;;;;;;;6.33;100.00;101171.56;5112593;28;20448;-71
2023/03/19 02:01:14;;;;;;;25.40;12.38;;;;;;;6.26;100.00;101177.38;5112916;28;20034;-71
2023/03/19 02:03:41;;;;;;;22.80;12.02;;;;;;;6.20;100.00;101181.25;5112713;28;20031;-71
2023/03/19 02:06:09;;;;;;;28.98;13.52;;;;;;;6.17;100.00;101186.75;5112732;28;20038;-71
2023/03/19 02:08:37;;;;;;;28.40;14.00;;;;;;;6.12;100.00;101187.06;5112538;28;20028;-71
2023/03/19 02:11:03;;;;;;;36.88;16.85;;;;;;;6.08;100.00;101176.81;5112363;28;20031;-71
2023/03/19 02:13:29;;;;;;;32.67;15.52;;;;;;;6.03;100.00;101176.25;5112646;28;20110;-71
2023/03/19 02:15:55;;;;;;;38.83;16.38;;;;;;;6.03;100.00;101184.16;5112287;28;20157;-71
2023/03/19 02:18:21;;;;;;;36.03;15.35;;;;;;;6.05;100.00;101185.78;5112471;28;20483;-71
2023/03/19 02:20:46;;;;;;;33.25;15.27;;;;;;;6.04;100.00;101189.34;5111872;28;20024;-71
2023/03/19 02:23:24;;;;;;;36.00;15.90;;;;;;;6.02;100.00;101183.34;5112735;28;20034;-71
2023/03/19 02:25:57;;;;;;;38.10;16.98;;;;;;;6.03;100.00;101178.88;5112198;28;20030;-71
2023/03/19 02:28:23;;;;;;;34.28;15.82;;;;;;;5.97;100.00;101181.00;5112546;28;20034;-71
2023/03/19 02:30:49;;;;;;;37.58;16.33;;;;;;;5.98;100.00;101177.38;5111662;28;20052;-73
2023/03/19 02:33:17;;;;;;;41.83;16.25;;;;;;;6.01;100.00;101184.28;5112480;28;20071;-71
2023/03/19 02:35:45;;;;;;;45.15;16.98;;;;;;;6.09;100.00;101181.13;5112572;28;20028;-71
2023/03/19 02:38:12;;;;;;;40.13;16.08;;;;;;;6.21;100.00;101187.38;5112539;28;20110;-71
2023/03/19 02:40:52;;;;;;;45.97;17.50;;;;;;;6.38;100.00;101186.28;5112313;28;20058;-71
2023/03/19 02:43:20;;;;;;;46.15;18.63;;;;;;;6.48;100.00;101187.34;5112511;28;20032;-71
2023/03/19 02:45:46;;;;;;;43.47;18.20;;;;;;;6.56;100.00;101202.69;5112421;28;20032;-70
2023/03/19 02:48:11;;;;;;;39.92;18.13;;;;;;;6.64;100.00;101192.41;5113446;28;20050;-71
2023/03/19 02:50:37;;;;;;;39.63;18.50;;;;;;;6.68;100.00;101196.56;5116465;28;20024;-70
2023/03/19 02:53:02;;;;;;;38.65;17.60;;;;;;;6.72;100.00;101184.81;5115887;28;20097;-71
2023/03/19 02:55:28;;;;;;;39.20;19.13;;;;;;;6.75;100.00;101184.59;5116298;28;20454;-71
2023/03/19 02:57:54;;;;;;;34.15;17.92;;;;;;;6.79;100.00;101190.53;5115836;28;20131;-71
2023/03/19 03:00:19;;;;;;;40.50;19.77;;;;;;;6.85;100.00;101190.09;5116329;28;20357;-71
2023/03/19 03:02:45;;;;;;;41.85;20.88;;;;;;;6.84;100.00;101202.47;5116111;28;20096;-71
2023/03/19 03:05:11;;;;;;;38.45;20.27;;;;;;;6.85;100.00;101198.03;5115597;28;20062;-71
2023/03/19 03:07:37;;;;;;;43.72;21.30;;;;;;;6.83;100.00;101199.94;5115874;28;20088;-71
2023/03/19 03:10:02;;;;;;;45.42;22.38;;;;;;;6.80;100.00;101200.16;5115549;28;20036;-71
2023/03/19 03:12:28;;;;;;;42.75;21.40;;;;;;;6.81;100.00;101186.81;5115689;28;20032;-71
2023/03/19 03:14:53;;;;;;;43.83;21.13;;;;;;;6.81;100.00;101193.91;5114158;28;20028;-71
2023/03/19 03:17:19;;;;;;;40.38;20.08;;;;;;;6.81;100.00;101196.56;5115570;28;20460;-71
2023/03/19 03:19:44;;;;;;;32.53;18.05;;;;;;;6.80;100.00;101193.06;5115835;28;20043;-71
2023/03/19 03:22:09;;;;;;;32.65;18.75;;;;;;;6.79;100.00;101195.81;5115509;28;20035;-72
2023/03/19 03:24:35;;;;;;;33.88;18.30;;;;;;;6.81;100.00;101188.63;5116054;28;20039;-71
2023/03/19 03:27:01;;;;;;;31.05;17.90;;;;;;;6.82;100.00;101192.94;5115009;28;20160;-71
2023/03/19 03:29:26;;;;;;;36.00;18.98;;;;;;;6.82;100.00;101198.25;5115686;28;20036;-71
2023/03/19 03:31:52;;;;;;;31.45;18.90;;;;;;;6.85;100.00;101188.31;5115853;28;20083;-72
2023/03/19 03:34:17;;;;;;;31.15;17.90;;;;;;;6.88;100.00;101195.16;5114037;28;20088;-72
2023/03/19 03:36:43;;;;;;;32.20;18.13;;;;;;;6.89;100.00;101192.41;5115503;28;20039;-71
2023/03/19 03:39:08;;;;;;;36.97;18.77;;;;;;;6.87;100.00;101191.69;5115016;28;20035;-71
2023/03/19 03:41:33;;;;;;;34.85;20.00;;;;;;;6.88;100.00;101195.16;5115568;28;20038;-71
2023/03/19 03:43:59;;;;;;;41.67;20.85;;;;;;;6.86;100.00;101192.63;5114924;28;20036;-72
2023/03/19 03:46:24;;;;;;;39.90;21.33;;;;;;;6.87;100.00;101199.63;5115291;28;20111;-72
2023/03/19 03:48:50;;;;;;;46.13;21.92;;;;;;;6.85;100.00;101201.53;5115284;28;20115;-71
2023/03/19 03:51:16;;;;;;;48.67;22.52;;;;;;;6.85;100.00;101203.31;5114675;28;20040;-71
2023/03/19 03:53:42;;;;;;;42.35;21.13;;;;;;;6.84;100.00;101202.47;5115192;28;20384;-72
2023/03/19 03:56:07;;;;;;;47.10;22.80;;;;;;;6.87;100.00;101202.25;5115042;28;20038;-71
2023/03/19 03:58:33;;;;;;;52.33;23.45;;;;;;;6.85;100.00;101208.59;5115151;28;20038;-71
2023/03/19 04:00:58;;;;;;;49.42;23.00;;;;;;;6.85;100.00;101209.47;5113337;27;20393;-72
2023/03/19 04:03:24;;;;;;;47.13;23.08;;;;;;;6.84;100.00;101207.78;5115070;28;20027;-72
2023/03/19 04:05:50;;;;;;;42.42;21.20;;;;;;;6.86;100.00;101212.94;5114974;28;20028;-71
2023/03/19 04:08:15;;;;;;;59.88;23.58;;;;;;;6.85;100.00;101221.84;5114382;27;20063;-72
2023/03/19 04:10:42;;;;;;;42.78;22.23;;;;;;;6.84;100.00;101215.69;5114894;28;20066;-71
2023/03/19 04:13:08;;;;;;;42.72;20.55;;;;;;;6.84;100.00;101226.28;5113962;28;20476;-71
2023/03/19 04:15:34;;;;;;;40.90;20.33;;;;;;;6.81;100.00;101223.03;5114734;28;20034;-71
2023/03/19 04:17:59;;;;;;;48.10;20.65;;;;;;;6.74;100.00;101213.81;5114229;28;20032;-72
2023/03/19 04:20:25;;;;;;;42.15;20.80;;;;;;;6.70;100.00;101213.16;5114681;28;20027;-72
2023/03/19 04:22:50;;;;;;;49.33;21.73;;;;;;;6.63;100.00;101212.75;5114672;28;20047;-72
2023/03/19 04:25:17;;;;;;;50.58;22.73;;;;;;;6.60;100.00;101220.00;5113947;28;20059;-72
2023/03/19 04:27:43;;;;;;;49.22;22.48;;;;;;;6.57;100.00;101205.22;5114323;28;20023;-72
2023/03/19 04:30:10;;;;;;;54.80;23.40;;;;;;;6.56;100.00;101213.25;5113475;28;20031;-72
2023/03/19 04:32:36;;;;;;;55.05;23.60;;;;;;;6.57;100.00;101214.94;5114467;28;20035;-72
2023/03/19 04:35:02;;;;;;;54.45;23.52;;;;;;;6.54;100.00;101216.00;5113851;28;20040;-72
2023/03/19 04:37:27;;;;;;;54.75;22.10;;;;;;;6.53;100.00;101230.16;5114249;28;20434;-71
2023/03/19 04:39:54;;;;;;;55.40;22.15;;;;;;;6.50;100.00;101227.72;5114243;28;20059;-72
2023/03/19 04:42:20;;;;;;;57.20;22.63;;;;;;;6.46;100.00;101231.53;5113825;28;20114;-71
2023/03/19 04:44:45;;;;;;;67.18;25.48;;;;;;;6.44;100.00;101238.72;5113827;28;20399;-71
2023/03/19 04:47:11;;;;;;;60.33;22.77;;;;;;;6.43;100.00;101243.16;5113314;28;20035;-71
2023/03/19 04:49:37;;;;;;;63.55;23.85;;;;;;;6.43;100.00;101244.94;5113932;28;20059;-71
2023/03/19 04:52:02;;;;;;;57.40;22.60;;;;;;;6.42;100.00;101248.53;5113896;27;20066;-72
2023/03/19 04:54:28;;;;;;;66.63;24.02;;;;;;;6.37;100.00;101246.19;5113488;28;20118;-72
2023/03/19 04:56:53;;;;;;;60.92;21.60;;;;;;;6.35;100.00;101256.88;5113591;28;20552;-71
2023/03/19 04:59:19;;;;;;;66.22;23.10;;;;;;;6.34;100.00;101241.13;5113532;28;20028;-72
2023/03/19 05:01:44;;;;;;;74.22;25.52;;;;;;;6.32;100.00;101251.78;5113937;28;20038;-71
2023/03/19 05:04:09;;;;;;;71.05;25.20;;;;;;;6.32;100.00;101258.88;5113336;28;20064;-71
2023/03/19 05:06:36;;;;;;;74.22;26.27;;;;;;;6.31;100.00;101259.81;5112537;28;20499;-71
2023/03/19 05:09:03;;;;;;;67.80;25.05;;;;;;;6.32;100.00;101270.28;5112348;28;20123;-71
2023/03/19 05:11:29;;;;;;;59.35;22.52;;;;;;;6.33;100.00;101269.34;5112921;28;20055;-71
2023/03/19 05:13:54;;;;;;;63.78;21.73;;;;;;;6.28;100.00;101273.25;5112360;28;20395;-71
2023/03/19 05:16:20;;;;;;;59.13;21.73;;;;;;;6.28;100.00;101275.88;5113118;28;20039;-72
2023/03/19 05:18:45;;;;;;;60.83;21.20;;;;;;;6.25;100.00;101276.09;5113721;28;20432;-71
2023/03/19 05:21:11;;;;;;;63.55;22.23;;;;;;;6.23;100.00;101278.81;5113063;28;20474;-72
2023/03/19 05:23:38;;;;;;;58.13;21.77;;;;;;;6.23;100.00;101278.81;5113408;28;20036;-71
2023/03/19 05:26:05;;;;;;;71.95;23.63;;;;;;;6.21;100.00;101286.03;5113405;28;20035;-71
2023/03/19 05:28:30;;;;;;;76.97;24.20;;;;;;;6.21;100.00;101282.50;5112882;28;20039;-71
2023/03/19 05:30:56;;;;;;;84.78;24.77;;;;;;;6.20;100.00;101284.31;5111599;28;20052;-71
2023/03/19 05:33:22;;;;;;;83.50;25.67;;;;;;;6.22;100.00;101277.13;5112880;28;20096;-71
2023/03/19 05:35:47;;;;;;;94.60;25.52;;;;;;;6.23;100.00;101285.91;5113220;28;20114;-71
2023/03/19 05:38:13;;;;;;;87.75;25.90;;;;;;;6.23;100.00;101291.22;5112787;28;20421;-71
2023/03/19 05:40:40;;;;;;;81.15;24.85;;;;;;;6.25;100.00;101284.84;5111788;28;20035;-71
2023/03/19 05:43:08;;;;;;;85.57;25.42;;;;;;;6.29;100.00;101289.00;5113045;28;20391;-71
2023/03/19 05:45:33;;;;;;;87.00;25.33;;;;;;;6.27;100.00;101295.31;5112622;28;20027;-71
2023/03/19 05:47:59;;;;;;;91.65;27.10;;;;;;;6.27;100.00;101301.47;5112929;28;20043;-71
2023/03/19 05:50:24;;;;;;;94.82;27.88;;;;;;;6.27;100.00;101297.97;5112646;28;20468;-71
2023/03/19 05:52:50;;;;;;;95.65;28.42;;;;;;;6.28;100.00;101300.50;5112772;28;20114;-71
2023/03/19 05:55:16;;;;;;;108.00;29.00;;;;;;;6.30;100.00;101303.91;5112489;28;20043;-71
2023/03/19 05:57:41;;;;;;;109.72;29.67;;;;;;;6.33;100.00;101292.31;5112885;28;20111;-71
2023/03/19 06:00:07;;;;;;;113.78;29.63;;;;;;;6.34;100.00;101291.34;5112898;28;20397;-71
2023/03/19 06:02:34;;;;;;;120.38;31.38;;;;;;;6.35;100.00;101288.59;5112325;28;20075;-71
2023/03/19 06:05:00;;;;;;;117.03;32.28;;;;;;;6.37;100.00;101299.06;5111429;28;20406;-71
2023/03/19 06:07:25;;;;;;;117.43;30.90;;;;;;;6.39;100.00;101298.97;5112235;28;20047;-71
2023/03/19 06:09:51;;;;;;;122.40;32.13;;;;;;;6.40;100.00;101298.84;5112645;28;20038;-71
2023/03/19 06:12:16;;;;;;;129.15;31.40;;;;;;;6.40;100.00;101309.44;5112487;28;20027;-71
2023/03/19 06:14:42;;;;;;;128.30;31.60;;;;;;;6.44;100.00;101308.28;5112732;28;20047;-71
2023/03/19 06:17:08;;;;;;;119.82;30.50;;;;;;;6.47;100.00;101309.91;5112779;28;20039;-71
2023/03/19 06:19:33;;;;;;;116.80;30.50;;;;;;;6.50;100.00;101314.97;5112184;28;20038;-71
2023/03/19 06:21:59;;;;;;;124.45;30.13;;;;;;;6.52;100.00;101313.06;5112482;28;20032;-71
2023/03/19 06:24:24;;;;;;;111.20;29.40;;;;;;;6.55;100.00;101318.16;5115717;28;20573;-72
2023/03/19 06:26:50;;;;;;;122.82;29.88;;;;;;;6.55;100.00;101322.59;5116799;28;20163;-71
2023/03/19 06:29:15;;;;;;;125.20;31.58;;;;;;;6.57;100.00;101325.97;5098511;28;20046;-71
2023/03/19 06:31:40;;;;;;;107.15;28.38;;;;;;;6.59;100.00;101329.38;5116330;28;20052;-71
2023/03/19 06:34:06;;;;;;;115.32;29.42;;;;;;;6.60;100.00;101328.41;5116616;28;20063;-71
2023/03/19 06:36:32;;;;;;;111.53;29.25;;;;;;;6.65;100.00;101334.28;5116250;28;20153;-71
2023/03/19 06:38:57;;;;;;;121.63;29.85;;;;;;;6.68;100.00;101345.47;5116742;28;20055;-71
2023/03/19 06:41:24;;;;;;;116.15;29.67;;;;;;;6.71;100.00;101345.28;5116026;28;20031;-71
2023/03/19 06:43:49;;;;;;;103.10;27.30;;;;;;;6.73;100.00;101347.81;5116337;28;20028;-71
2023/03/19 06:46:14;;;;;;;110.03;28.45;;;;;;;6.72;100.00;101351.44;5116190;27;20027;-71
2023/03/19 06:48:40;;;;;;;107.22;29.73;;;;;;;6.74;100.00;101346.03;5115535;28;20088;-71
2023/03/19 06:51:05;;;;;;;113.25;27.90;;;;;;;6.76;100.00;101349.41;5115917;28;20063;-71
2023/03/19 06:53:31;;;;;;;107.43;27.05;;;;;;;6.78;100.00;101356.31;5116077;28;20036;-71
2023/03/19 06:55:56;;;;;;;108.95;27.65;;;;;;;6.79;100.00;101351.84;5116138;28;20106;-71
2023/03/19 06:58:22;;;;;;;102.45;26.98;;;;;;;6.78;100.00;101350.19;5115812;28;20031;-72
2023/03/19 07:00:47;;;;;;;120.07;28.30;;;;;;;6.79;100.00;101357.16;5115976;28;20145;-71
2023/03/19 07:03:13;;;;;;;114.88;28.67;;;;;;;6.77;100.00;101359.91;5116303;28;20032;-71
2023/03/19 07:05:38;;;;;;;104.43;27.05;;;;;;;6.80;100.00;101361.50;5115987;28;20030;-71
2023/03/19 07:08:06;;;;;;;99.07;25.52;;;;;;;6.84;100.00;101360.34;5115846;27;20114;-71
2023/03/19 07:10:31;;;;;;;94.00;25.90;;;;;;;6.91;100.00;101368.72;5115544;28;20092;-71
2023/03/19 07:12:56;;;;;;;108.95;27.05;;;;;;;6.89;100.00;101368.81;5116091;28;20032;-72
2023/03/19 07:15:22;;;;;;;100.40;26.98;;;;;;;6.92;100.00;101376.53;5115453;28;20071;-72
2023/03/19 07:17:48;;;;;;;110.20;26.73;;;;;;;6.93;100.00;101385.34;5115549;27;20031;-72
2023/03/19 07:20:15;;;;;;;95.60;24.70;;;;;;;6.93;100.00;101378.25;5115935;28;20027;-71
2023/03/19 07:22:40;;;;;;;105.57;25.40;;;;;;;6.92;100.00;101384.47;5115249;28;20028;-72
2023/03/19 07:25:06;;;;;;;96.40;26.05;;;;;;;6.97;100.00;101384.16;5115786;28;20357;-72
2023/03/19 07:27:32;;;;;;;105.80;26.05;;;;;;;6.97;100.00;101390.34;5115202;28;20024;-72
2023/03/19 07:29:58;;;;;;;86.72;24.13;;;;;;;6.98;100.00;101389.38;5115609;28;20512;-72
2023/03/19 07:32:23;;;;;;;100.95;26.35;;;;;;;7.02;100.00;101405.91;5115693;28;20054;-72
2023/03/19 07:34:49;;;;;;;94.50;25.40;;;;;;;7.04;100.00;101391.59;5113616;28;20023;-72
2023/03/19 07:37:15;;;;;;;101.20;24.67;;;;;;;7.07;100.00;101401.13;5115457;28;20024;-73
2023/03/19 07:39:40;;;;;;;91.45;24.52;;;;;;;7.05;100.00;101395.94;5114970;28;20032;-73
2023/03/19 07:42:06;;;;;;;91.78;23.95;;;;;;;7.08;100.00;101402.84;5115301;28;20036;-72
2023/03/19 07:44:31;;;;;;;96.88;25.58;;;;;;;7.12;100.00;101398.19;5114927;28;20114;-72
2023/03/19 07:46:57;;;;;;;92.03;23.85;;;;;;;7.16;100.00;101400.50;5115128;28;20364;-72
2023/03/19 07:49:23;;;;;;;78.88;23.38;;;;;;;7.21;100.00;101401.06;5115374;28;20038;-72
2023/03/19 07:51:48;;;;;;;86.45;24.45;;;;;;;7.18;100.00;101411.00;5114510;28;20122;-72
2023/03/19 07:54:14;;;;;;;86.20;24.48;;;;;;;7.18;100.00;101406.56;5113980;28;20088;-72
2023/03/19 07:56:39;;;;;;;78.43;22.83;;;;;;;7.22;100.00;101412.50;5114369;28;20054;-72
2023/03/19 07:59:04;;;;;;;78.88;23.33;;;;;;;7.20;100.00;101417.06;5113716;28;20064;-72
2023/03/19 08:01:30;;;;;;;80.25;22.95;;;;;;;7.28;100.00;101413.88;5114376;27;20388;-72
2023/03/19 08:03:55;;;;;;;89.63;23.70;;;;;;;7.35;100.00;101420.47;5114885;28;20478;-71
2023/03/19 08:06:21;;;;;;;81.78;23.55;;;;;;;7.44;100.00;101417.19;5114904;28;20468;-71
2023/03/19 08:08:46;;;;;;;83.15;23.80;;;;;;;7.54;100.00;101428.84;5114399;28;20111;-71
2023/03/19 08:11:11;;;;;;;85.63;23.80;;;;;;;7.63;100.00;101427.38;5114921;27;20036;-71
2023/03/19 08:13:37;;;;;;;71.72;24.38;;;;;;;7.64;100.00;101431.69;5114089;28;20472;-71
2023/03/19 08:16:02;;;;;;;79.35;23.50;;;;;;;7.67;100.00;101430.66;5114901;28;20063;-72
2023/03/19 08:18:28;;;;;;;71.78;22.45;;;;;;;7.69;100.00;101439.34;5114664;28;20042;-71
2023/03/19 08:20:53;;;;;;;77.47;22.95;;;;;;;7.69;100.00;101431.41;5114001;28;20032;-72
2023/03/19 08:23:18;;;;;;;74.95;24.92;;;;;;;7.74;100.00;101431.91;5113155;28;20345;-72
2023/03/19 08:25:44;;;;;;;76.28;24.42;;;;;;;7.77;100.00;101440.50;5113861;28;20072;-74
2023/03/19 08:28:10;;;;;;;68.55;23.25;;;;;;;7.85;100.00;101447.06;5114220;28;20380;-72
2023/03/19 08:30:36;;;;;;;77.57;24.73;;;;;;;7.88;100.00;101445.06;5113840;28;20092;-73
2023/03/19 08:33:01;;;;;;;81.55;25.90;;;;;;;7.95;100.00;101451.63;5093937;28;20043;-73
2023/03/19 08:35:27;;;;;;;69.50;25.25;;;;;;;8.00;100.00;101453.97;5090999;28;20036;-72
2023/03/19 08:37:53;;;;;;;73.63;24.40;;;;;;;8.03;100.00;101456.41;5090718;28;20400;-72
2023/03/19 08:40:19;;;;;;;70.72;25.00;;;;;;;8.11;100.00;101458.50;5091194;28;20034;-72
2023/03/19 08:42:44;;;;;;;69.55;24.10;;;;;;;8.21;100.00;101466.63;5090795;28;20027;-72
2023/03/19 08:45:12;;;;;;;63.80;23.10;;;;;;;8.25;100.00;101466.31;5090461;28;20035;-72
2023/03/19 08:47:38;;;;;;;74.93;24.77;;;;;;;8.23;100.00;101468.25;5089931;28;20557;-72
2023/03/19 08:50:04;;;;;;;67.28;24.08;;;;;;;8.29;100.00;101464.31;5089311;28;20036;-72
2023/03/19 08:52:29;;;;;;;64.82;24.15;;;;;;;8.33;100.00;101471.09;5106556;28;20397;-72
2023/03/19 08:54:55;;;;;;;71.35;24.45;;;;;;;8.35;100.00;101471.81;5106116;28;20039;-73
2023/03/19 08:57:20;;;;;;;67.85;24.20;;;;;;;8.36;100.00;101475.31;5088921;28;20494;-72
2023/03/19 08:59:46;;;;;;;72.75;24.80;;;;;;;8.34;100.00;101471.94;5106127;28;20032;-72
2023/03/19 09:02:12;;;;;;;67.60;24.30;;;;;;;8.28;100.00;101468.78;5090622;28;20115;-72
2023/03/19 09:04:41;;;;;;;72.57;25.48;;;;;;;8.26;100.00;101475.97;5090214;28;20469;-75
2023/03/19 09:07:07;;;;;;;74.25;24.75;;;;;;;8.24;100.00;101474.38;5090156;28;20036;-72
2023/03/19 09:09:32;;;;;;;59.28;23.13;;;;;;;8.23;100.00;101478.84;5090506;28;20043;-72
2023/03/19 09:11:58;;;;;;;61.72;23.30;;;;;;;8.21;100.00;101475.47;5090059;28;20028;-73
2023/03/19 09:14:23;;;;;;;51.13;20.67;;;;;;;8.30;100.00;101476.63;5090180;28;20039;-72
2023/03/19 09:16:49;;;;;;;57.65;22.70;;;;;;;8.36;100.00;101484.13;5089755;28;20036;-73
2023/03/19 09:19:14;;;;;;;50.17;20.98;;;;;;;8.45;100.00;101474.72;5090111;28;20040;-73
2023/03/19 09:21:40;;;;;;;54.45;21.65;;;;;;;8.58;100.00;101480.84;5089751;28;20024;-73
2023/03/19 09:24:06;;;;;;;53.28;22.15;;;;;;;8.64;100.00;101493.66;5090291;28;20650;-72
2023/03/19 09:26:31;;;;;;;55.15;20.60;;;;;;;8.76;100.00;101493.72;5090590;28;20040;-72
2023/03/19 09:28:57;;;;;;;48.78;19.52;;;;;;;8.74;100.00;101485.03;5088515;28;20453;-72
2023/03/19 09:31:23;;;;;;;50.38;20.58;;;;;;;8.71;100.00;101498.50;5089606;28;20480;-73
2023/03/19 09:33:48;;;;;;;47.72;20.52;;;;;;;8.74;100.00;101488.50;5089882;28;20040;-72
2023/03/19 09:36:14;;;;;;;48.20;18.85;;;;;;;8.80;100.00;101500.50;5090222;28;20043;-70
2023/03/19 09:38:40;;;;;;;45.38;19.15;;;;;;;8.86;100.00;101502.69;5090085;28;20038;-72
2023/03/19 09:41:16;;;;;;;44.85;19.13;;;;;;;8.92;100.00;101509.38;5089852;28;20036;-71
2023/03/19 09:43:44;;;;;;;42.25;18.95;;;;;;;9.03;100.00;101509.41;5089844;28;20027;-76
2023/03/19 09:46:26;;;;;;;40.83;19.25;;;;;;;9.19;100.00;101517.09;5090038;28;20110;-72
2023/03/19 09:49:10;;;;;;;;;;;;;;;9.27;100.00;101517.41;5089897;28;20063;-73
2023/03/19 09:51:45;;;;;;;43.10;16.77;;;;;;;9.32;100.00;101520.53;5089985;28;19916;-73
2023/03/19 09:54:26;;;;;;;42.60;17.00;;;;;;;9.28;100.00;101523.56;5089960;28;20046;-73
2023/03/19 09:56:52;;;;;;;43.97;18.25;;;;;;;9.25;100.00;101524.63;5088632;28;20373;-73
2023/03/19 09:59:21;;;;;;;49.67;19.05;;;;;;;9.26;100.00;101514.88;5097016;28;20110;-73
2023/03/19 10:01:54;;;;;;;50.22;19.90;;;;;;;9.28;100.00;101528.84;5104465;28;20040;-73
2023/03/19 10:04:35;;;;;;;53.55;20.30;;;;;;;9.23;100.00;101531.03;5091311;28;20020;-73
2023/03/19 10:07:22;;;;;;;55.25;21.20;;;;;;;9.18;100.00;101526.91;5091345;28;20388;-72
2023/03/19 10:10:06;;;;;;;54.42;21.95;;;;;;;9.15;100.00;101537.75;5091283;28;20030;-73
2023/03/19 10:12:58;;;;;;;50.47;22.05;;;;;;;9.14;100.00;101536.03;5091653;28;20035;-74
2023/03/19 10:15:32;;;;;;;57.50;21.38;;;;;;;9.16;100.00;101543.88;5091781;28;20032;-73
2023/03/19 10:18:27;;;;;;;51.22;22.33;;;;;;;9.16;100.00;101547.38;5091113;28;20111;-73
2023/03/19 10:21:15;;;;;;;50.95;20.92;;;;;;;9.16;100.00;101544.72;5091212;28;20024;-73
2023/03/19 10:23:45;;;;;;;56.42;21.45;;;;;;;9.18;100.00;101550.78;5091308;28;20430;-73
2023/03/19 10:26:15;;;;;;;47.28;19.65;;;;;;;9.22;100.00;101547.91;5091660;28;20345;-72
2023/03/19 10:28:43;;;;;;;51.40;21.20;;;;;;;9.21;100.00;101554.16;5091751;28;20021;-73
2023/03/19 10:31:25;;;;;;;48.95;20.40;;;;;;;9.20;100.00;101557.81;5089708;28;20052;-73
2023/03/19 10:34:27;;;;;;;54.97;20.30;;;;;;;9.21;100.00;101552.38;5089796;28;20458;-72
2023/03/19 10:37:12;;;;;;;46.53;19.27;;;;;;;9.13;100.00;101547.59;5089908;28;20028;-72
2023/03/19 10:39:41;;;;;;;46.35;18.70;;;;;;;9.12;100.00;101553.03;5104259;28;20034;-73
2023/03/19 10:42:12;;;;;;;49.78;19.98;;;;;;;9.13;100.00;101554.72;5108779;28;20031;-71
2023/03/19 10:44:52;;;;;;;;;;;;;;;9.15;100.00;101550.16;5108631;28;20039;-72
2023/03/19 10:47:21;;;;;;;43.78;18.15;;;;;;;9.17;100.00;101559.69;5107693;28;19964;-73
2023/03/19 10:49:49;;;;;;;41.95;17.10;;;;;;;9.20;100.00;101557.81;5111251;28;20032;-72
2023/03/19 10:52:20;;;;;;;39.03;17.25;;;;;;;9.23;100.00;101558.41;5111719;28;20039;-73
2023/03/19 10:54:45;;;;;;;39.90;17.52;;;;;;;9.29;100.00;101559.78;5111693;28;20031;-71
2023/03/19 10:57:25;;;;;;;33.65;16.38;;;;;;;9.29;100.00;101562.44;5111116;28;20028;-71
2023/03/19 10:59:51;;;;;;;34.10;16.38;;;;;;;9.31;100.00;101563.16;5111135;28;20043;-72
2023/03/19 11:02:31;;;;;;;32.97;15.98;;;;;;;9.27;100.00;101559.88;5111544;28;20027;-72
2023/03/19 11:05:20;;;;;;;42.72;18.42;;;;;;;9.24;100.00;101562.78;5111341;28;20077;-72
2023/03/19 11:07:54;;;;;;;45.00;18.98;;;;;;;9.27;100.00;101564.34;5110471;28;20680;-72
2023/03/19 11:10:21;;;;;;;47.33;21.38;;;;;;;9.32;100.00;101567.50;5114591;28;20059;-73